sensor_id;sensor_type;location;lat;lon;timestamp;P1;durP1;ratioP1;P2;durP2;ratioP2
57697;SDS011;43531;52.152;6.366;2023-10-31T00:00:38;15.15;;;11.15;;
57697;SDS011;43531;52.152;6.366;2023-10-31T00:01:26;18.33;;;12.18;;
57697;SDS011;43531;52.152;6.366;2023-10-31T00:02:19;19.83;;;12.98;;
57697;SDS011;43531;52.152;6.366;2023-10-31T00:02:52;17.02;;;11.63;;
57697;SDS011;43531;52.152;6.366;2023-10-31T00:03:32;20.48;;;12.65;;
57697;SDS011;43531;52.152;6.366;2023-10-31T00:04:30;18.80;;;11.90;;
57697;SDS011;43531;52.152;6.366;2023-10-31T00:05:07;19.27;;;12.52;;
57697;SDS011;43531;52.152;6.366;2023-10-31T00:05:38;17.05;;;12.63;;
57697;SDS011;43531;52.152;6.366;2023-10-31T00:06:10;19.90;;;12.57;;
57697;SDS011;43531;52.152;6.366;2023-10-31T00:06:42;19.40;;;13.40;;
57697;SDS011;43531;52.152;6.366;2023-10-31T00:07:23;21.13;;;13.50;;
57697;SDS011;43531;52.152;6.366;2023-10-31T00:07:55;19.55;;;13.00;;
57697;SDS011;43531;52.152;6.366;2023-10-31T00:09:35;18.77;;;12.52;;
57697;SDS011;43531;52.152;6.366;2023-10-31T00:10:07;18.30;;;12.15;;
57697;SDS011;43531;52.152;6.366;2023-10-31T00:10:39;21.73;;;13.00;;
57697;SDS011;43531;52.152;6.366;2023-10-31T00:11:11;15.23;;;11.63;;
57697;SDS011;43531;52.152;6.366;2023-10-31T00:11:46;17.02;;;12.60;;
57697;SDS011;43531;52.152;6.366;2023-10-31T00:12:36;15.77;;;11.77;;
57697;SDS011;43531;52.152;6.366;2023-10-31T00:13:20;17.35;;;11.63;;
57697;SDS011;43531;52.152;6.366;2023-10-31T00:13:52;16.80;;;12.50;;
57697;SDS011;43531;52.152;6.366;2023-10-31T00:14:23;13.55;;;10.55;;
57697;SDS011;43531;52.152;6.366;2023-10-31T00:15:01;17.88;;;12.55;;
57697;SDS011;43531;52.152;6.366;2023-10-31T00:15:33;15.13;;;11.23;;
57697;SDS011;43531;52.152;6.366;2023-10-31T00:16:05;15.82;;;11.52;;
57697;SDS011;43531;52.152;6.366;2023-10-31T00:16:43;16.55;;;11.88;;
57697;SDS011;43531;52.152;6.366;2023-10-31T00:17:28;13.57;;;10.65;;
57697;SDS011;43531;52.152;6.366;2023-10-31T00:18:20;15.30;;;11.23;;
57697;SDS011;43531;52.152;6.366;2023-10-31T00:18:52;16.63;;;11.82;;
57697;SDS011;43531;52.152;6.366;2023-10-31T00:19:23;17.48;;;11.85;;
57697;SDS011;43531;52.152;6.366;2023-10-31T00:19:55;15.73;;;11.40;;
57697;SDS011;43531;52.152;6.366;2023-10-31T00:20:28;16.52;;;10.98;;
57697;SDS011;43531;52.152;6.366;2023-10-31T00:21:18;16.38;;;11.18;;
57697;SDS011;43531;52.152;6.366;2023-10-31T00:21:57;14.15;;;10.77;;
57697;SDS011;43531;52.152;6.366;2023-10-31T00:22:59;16.00;;;11.30;;
57697;SDS011;43531;52.152;6.366;2023-10-31T00:23:47;17.23;;;11.77;;
57697;SDS011;43531;52.152;6.366;2023-10-31T00:24:22;16.85;;;11.60;;
57697;SDS011;43531;52.152;6.366;2023-10-31T00:24:54;15.18;;;11.25;;
57697;SDS011;43531;52.152;6.366;2023-10-31T00:25:31;17.80;;;11.60;;
57697;SDS011;43531;52.152;6.366;2023-10-31T00:26:09;15.30;;;10.88;;
57697;SDS011;43531;52.152;6.366;2023-10-31T00:26:53;19.33;;;11.30;;
57697;SDS011;43531;52.152;6.366;2023-10-31T00:27:46;16.85;;;10.63;;
57697;SDS011;43531;52.152;6.366;2023-10-31T00:28:31;16.25;;;11.65;;
57697;SDS011;43531;52.152;6.366;2023-10-31T00:29:06;16.35;;;11.02;;
57697;SDS011;43531;52.152;6.366;2023-10-31T00:29:49;13.52;;;9.65;;
57697;SDS011;43531;52.152;6.366;2023-10-31T00:30:31;7.97;;;6.82;;
57697;SDS011;43531;52.152;6.366;2023-10-31T00:31:08;5.95;;;5.07;;
57697;SDS011;43531;52.152;6.366;2023-10-31T00:31:43;6.38;;;3.85;;
57697;SDS011;43531;52.152;6.366;2023-10-31T00:32:15;4.68;;;3.13;;
57697;SDS011;43531;52.152;6.366;2023-10-31T00:32:46;2.90;;;2.40;;
57697;SDS011;43531;52.152;6.366;2023-10-31T00:34:01;2.70;;;2.15;;
57697;SDS011;43531;52.152;6.366;2023-10-31T00:34:40;5.05;;;2.33;;
57697;SDS011;43531;52.152;6.366;2023-10-31T00:35:12;3.42;;;2.13;;
57697;SDS011;43531;52.152;6.366;2023-10-31T00:36:56;1.40;;;0.70;;
57697;SDS011;43531;52.152;6.366;2023-10-31T00:37:30;0.95;;;0.93;;
57697;SDS011;43531;52.152;6.366;2023-10-31T00:38:10;2.88;;;0.70;;
57697;SDS011;43531;52.152;6.366;2023-10-31T00:38:42;0.75;;;0.70;;
57697;SDS011;43531;52.152;6.366;2023-10-31T00:39:14;0.82;;;0.82;;
57697;SDS011;43531;52.152;6.366;2023-10-31T00:39:59;1.45;;;0.80;;
57697;SDS011;43531;52.152;6.366;2023-10-31T00:40:42;0.98;;;0.75;;
57697;SDS011;43531;52.152;6.366;2023-10-31T00:41:16;0.52;;;0.50;;
57697;SDS011;43531;52.152;6.366;2023-10-31T00:41:48;2.30;;;0.40;;
57697;SDS011;43531;52.152;6.366;2023-10-31T00:42:27;1.77;;;0.38;;
57697;SDS011;43531;52.152;6.366;2023-10-31T00:42:59;0.57;;;0.57;;
57697;SDS011;43531;52.152;6.366;2023-10-31T00:43:48;3.75;;;0.40;;
57697;SDS011;43531;52.152;6.366;2023-10-31T00:44:38;0.20;;;0.20;;
57697;SDS011;43531;52.152;6.366;2023-10-31T00:45:16;0.28;;;0.28;;
57697;SDS011;43531;52.152;6.366;2023-10-31T00:46:25;0.20;;;0.10;;
57697;SDS011;43531;52.152;6.366;2023-10-31T00:47:13;1.00;;;0.22;;
57697;SDS011;43531;52.152;6.366;2023-10-31T00:48:00;0.05;;;0.05;;
57697;SDS011;43531;52.152;6.366;2023-10-31T00:48:57;0.43;;;0.30;;
57697;SDS011;43531;52.152;6.366;2023-10-31T00:49:40;0.20;;;0.20;;
57697;SDS011;43531;52.152;6.366;2023-10-31T00:50:22;3.15;;;0.25;;
57697;SDS011;43531;52.152;6.366;2023-10-31T00:51:10;3.60;;;0.20;;
57697;SDS011;43531;52.152;6.366;2023-10-31T00:51:54;0.15;;;0.15;;
57697;SDS011;43531;52.152;6.366;2023-10-31T00:52:41;0.50;;;0.35;;
57697;SDS011;43531;52.152;6.366;2023-10-31T00:53:20;0.55;;;0.10;;
57697;SDS011;43531;52.152;6.366;2023-10-31T00:54:02;0.20;;;0.10;;
57697;SDS011;43531;52.152;6.366;2023-10-31T00:54:59;0.30;;;0.20;;
57697;SDS011;43531;52.152;6.366;2023-10-31T00:55:55;1.33;;;0.28;;
57697;SDS011;43531;52.152;6.366;2023-10-31T00:56:54;1.35;;;0.30;;
57697;SDS011;43531;52.152;6.366;2023-10-31T00:57:33;0.30;;;0.10;;
57697;SDS011;43531;52.152;6.366;2023-10-31T00:58:06;0.52;;;0.20;;
57697;SDS011;43531;52.152;6.366;2023-10-31T00:59:40;1.90;;;0.38;;
57697;SDS011;43531;52.152;6.366;2023-10-31T01:00:36;1.92;;;0.57;;
57697;SDS011;43531;52.152;6.366;2023-10-31T01:01:17;2.17;;;0.20;;
57697;SDS011;43531;52.152;6.366;2023-10-31T01:02:18;3.65;;;0.50;;
57697;SDS011;43531;52.152;6.366;2023-10-31T01:03:26;2.28;;;0.40;;
57697;SDS011;43531;52.152;6.366;2023-10-31T01:04:01;5.80;;;0.30;;
57697;SDS011;43531;52.152;6.366;2023-10-31T01:05:01;0.25;;;0.20;;
57697;SDS011;43531;52.152;6.366;2023-10-31T01:05:38;1.80;;;0.50;;
57697;SDS011;43531;52.152;6.366;2023-10-31T01:06:10;0.65;;;0.40;;
57697;SDS011;43531;52.152;6.366;2023-10-31T01:06:53;3.03;;;0.30;;
57697;SDS011;43531;52.152;6.366;2023-10-31T01:07:47;0.17;;;0.17;;
57697;SDS011;43531;52.152;6.366;2023-10-31T01:08:36;0.85;;;0.30;;
57697;SDS011;43531;52.152;6.366;2023-10-31T01:10:19;1.92;;;0.35;;
57697;SDS011;43531;52.152;6.366;2023-10-31T01:11:02;0.73;;;0.30;;
57697;SDS011;43531;52.152;6.366;2023-10-31T01:11:39;1.35;;;0.30;;
57697;SDS011;43531;52.152;6.366;2023-10-31T01:12:36;5.10;;;0.57;;
57697;SDS011;43531;52.152;6.366;2023-10-31T01:13:18;3.95;;;0.40;;
57697;SDS011;43531;52.152;6.366;2023-10-31T01:14:02;0.98;;;0.38;;
57697;SDS011;43531;52.152;6.366;2023-10-31T01:14:52;1.88;;;0.30;;
57697;SDS011;43531;52.152;6.366;2023-10-31T01:15:40;0.95;;;0.50;;
57697;SDS011;43531;52.152;6.366;2023-10-31T01:17:06;2.28;;;0.50;;
57697;SDS011;43531;52.152;6.366;2023-10-31T01:17:45;0.20;;;0.20;;
57697;SDS011;43531;52.152;6.366;2023-10-31T01:18:50;2.72;;;0.30;;
57697;SDS011;43531;52.152;6.366;2023-10-31T01:19:23;3.08;;;0.30;;
57697;SDS011;43531;52.152;6.366;2023-10-31T01:19:55;0.85;;;0.82;;
57697;SDS011;43531;52.152;6.366;2023-10-31T01:20:47;2.33;;;0.47;;
57697;SDS011;43531;52.152;6.366;2023-10-31T01:21:35;0.30;;;0.25;;
57697;SDS011;43531;52.152;6.366;2023-10-31T01:22:06;1.70;;;0.50;;
57697;SDS011;43531;52.152;6.366;2023-10-31T01:22:53;0.82;;;0.30;;
57697;SDS011;43531;52.152;6.366;2023-10-31T01:23:25;4.57;;;0.35;;
57697;SDS011;43531;52.152;6.366;2023-10-31T01:24:56;0.68;;;0.28;;
57697;SDS011;43531;52.152;6.366;2023-10-31T01:25:40;3.53;;;0.50;;
57697;SDS011;43531;52.152;6.366;2023-10-31T01:26:43;1.50;;;0.38;;
57697;SDS011;43531;52.152;6.366;2023-10-31T01:27:25;3.20;;;0.63;;
57697;SDS011;43531;52.152;6.366;2023-10-31T01:27:57;1.30;;;0.30;;
57697;SDS011;43531;52.152;6.366;2023-10-31T01:28:28;4.32;;;0.40;;
57697;SDS011;43531;52.152;6.366;2023-10-31T01:29:00;3.58;;;0.25;;
57697;SDS011;43531;52.152;6.366;2023-10-31T01:29:31;7.43;;;0.63;;
57697;SDS011;43531;52.152;6.366;2023-10-31T01:30:03;2.47;;;0.73;;
57697;SDS011;43531;52.152;6.366;2023-10-31T01:30:35;2.17;;;0.50;;
57697;SDS011;43531;52.152;6.366;2023-10-31T01:31:08;0.98;;;0.40;;
57697;SDS011;43531;52.152;6.366;2023-10-31T01:31:41;1.17;;;0.40;;
57697;SDS011;43531;52.152;6.366;2023-10-31T01:32:15;3.22;;;0.40;;
57697;SDS011;43531;52.152;6.366;2023-10-31T01:32:53;1.50;;;0.70;;
57697;SDS011;43531;52.152;6.366;2023-10-31T01:33:24;2.03;;;0.52;;
57697;SDS011;43531;52.152;6.366;2023-10-31T01:33:56;2.88;;;0.73;;
57697;SDS011;43531;52.152;6.366;2023-10-31T01:34:28;0.93;;;0.77;;
57697;SDS011;43531;52.152;6.366;2023-10-31T01:35:00;1.23;;;0.30;;
57697;SDS011;43531;52.152;6.366;2023-10-31T01:35:31;0.90;;;0.40;;
57697;SDS011;43531;52.152;6.366;2023-10-31T01:36:03;1.88;;;0.57;;
57697;SDS011;43531;52.152;6.366;2023-10-31T01:36:35;4.97;;;1.70;;
57697;SDS011;43531;52.152;6.366;2023-10-31T01:37:07;2.53;;;0.43;;
57697;SDS011;43531;52.152;6.366;2023-10-31T01:37:38;2.63;;;0.70;;
57697;SDS011;43531;52.152;6.366;2023-10-31T01:38:10;4.05;;;0.47;;
57697;SDS011;43531;52.152;6.366;2023-10-31T01:38:42;0.77;;;0.70;;
57697;SDS011;43531;52.152;6.366;2023-10-31T01:39:13;6.65;;;0.70;;
57697;SDS011;43531;52.152;6.366;2023-10-31T01:39:45;0.60;;;0.60;;
57697;SDS011;43531;52.152;6.366;2023-10-31T01:40:17;1.90;;;0.45;;
57697;SDS011;43531;52.152;6.366;2023-10-31T01:40:49;1.58;;;0.70;;
57697;SDS011;43531;52.152;6.366;2023-10-31T01:41:22;2.47;;;0.60;;
57697;SDS011;43531;52.152;6.366;2023-10-31T01:41:53;2.50;;;0.80;;
57697;SDS011;43531;52.152;6.366;2023-10-31T01:42:26;2.17;;;0.50;;
57697;SDS011;43531;52.152;6.366;2023-10-31T01:42:57;0.75;;;0.22;;
57697;SDS011;43531;52.152;6.366;2023-10-31T01:43:33;2.08;;;0.40;;
57697;SDS011;43531;52.152;6.366;2023-10-31T01:44:06;1.70;;;0.55;;
57697;SDS011;43531;52.152;6.366;2023-10-31T01:44:37;3.45;;;0.73;;
57697;SDS011;43531;52.152;6.366;2023-10-31T01:45:09;1.38;;;0.65;;
57697;SDS011;43531;52.152;6.366;2023-10-31T01:45:42;1.05;;;0.68;;
57697;SDS011;43531;52.152;6.366;2023-10-31T01:46:13;2.83;;;0.60;;
57697;SDS011;43531;52.152;6.366;2023-10-31T01:46:45;0.77;;;0.50;;
57697;SDS011;43531;52.152;6.366;2023-10-31T01:47:17;3.65;;;1.10;;
57697;SDS011;43531;52.152;6.366;2023-10-31T01:47:49;0.60;;;0.57;;
57697;SDS011;43531;52.152;6.366;2023-10-31T01:48:21;6.15;;;0.90;;
57697;SDS011;43531;52.152;6.366;2023-10-31T01:48:55;3.22;;;0.90;;
57697;SDS011;43531;52.152;6.366;2023-10-31T01:49:27;3.22;;;0.85;;
57697;SDS011;43531;52.152;6.366;2023-10-31T01:49:58;2.53;;;0.88;;
57697;SDS011;43531;52.152;6.366;2023-10-31T01:50:30;1.15;;;0.63;;
57697;SDS011;43531;52.152;6.366;2023-10-31T01:51:03;3.13;;;0.77;;
57697;SDS011;43531;52.152;6.366;2023-10-31T01:51:35;1.75;;;0.85;;
57697;SDS011;43531;52.152;6.366;2023-10-31T01:52:07;2.70;;;1.10;;
57697;SDS011;43531;52.152;6.366;2023-10-31T01:52:39;1.38;;;0.88;;
57697;SDS011;43531;52.152;6.366;2023-10-31T01:53:11;2.45;;;0.88;;
57697;SDS011;43531;52.152;6.366;2023-10-31T01:53:42;2.47;;;0.90;;
57697;SDS011;43531;52.152;6.366;2023-10-31T01:54:14;4.22;;;1.08;;
57697;SDS011;43531;52.152;6.366;2023-10-31T01:54:46;2.28;;;0.88;;
57697;SDS011;43531;52.152;6.366;2023-10-31T01:55:17;2.40;;;0.82;;
57697;SDS011;43531;52.152;6.366;2023-10-31T01:55:49;2.40;;;0.82;;
57697;SDS011;43531;52.152;6.366;2023-10-31T01:56:22;0.95;;;0.68;;
57697;SDS011;43531;52.152;6.366;2023-10-31T01:56:55;1.67;;;0.90;;
57697;SDS011;43531;52.152;6.366;2023-10-31T01:57:29;2.35;;;0.93;;
57697;SDS011;43531;52.152;6.366;2023-10-31T01:58:00;2.95;;;0.85;;
57697;SDS011;43531;52.152;6.366;2023-10-31T01:58:33;5.88;;;0.63;;
57697;SDS011;43531;52.152;6.366;2023-10-31T01:59:06;2.00;;;1.15;;
57697;SDS011;43531;52.152;6.366;2023-10-31T01:59:38;1.75;;;0.80;;
57697;SDS011;43531;52.152;6.366;2023-10-31T02:00:11;3.13;;;0.80;;
57697;SDS011;43531;52.152;6.366;2023-10-31T02:00:43;3.53;;;0.90;;
57697;SDS011;43531;52.152;6.366;2023-10-31T02:01:14;6.50;;;1.02;;
57697;SDS011;43531;52.152;6.366;2023-10-31T02:01:46;0.70;;;0.68;;
57697;SDS011;43531;52.152;6.366;2023-10-31T02:02:18;5.78;;;0.93;;
57697;SDS011;43531;52.152;6.366;2023-10-31T02:02:53;1.67;;;0.90;;
57697;SDS011;43531;52.152;6.366;2023-10-31T02:03:27;1.60;;;1.05;;
57697;SDS011;43531;52.152;6.366;2023-10-31T02:03:59;5.25;;;1.08;;
57697;SDS011;43531;52.152;6.366;2023-10-31T02:04:33;4.40;;;0.88;;
57697;SDS011;43531;52.152;6.366;2023-10-31T02:05:05;2.50;;;1.20;;
57697;SDS011;43531;52.152;6.366;2023-10-31T02:05:38;0.98;;;0.93;;
57697;SDS011;43531;52.152;6.366;2023-10-31T02:06:09;6.22;;;1.10;;
57697;SDS011;43531;52.152;6.366;2023-10-31T02:06:41;4.25;;;1.30;;
57697;SDS011;43531;52.152;6.366;2023-10-31T02:07:13;6.00;;;1.67;;
57697;SDS011;43531;52.152;6.366;2023-10-31T02:07:44;1.50;;;0.80;;
57697;SDS011;43531;52.152;6.366;2023-10-31T02:08:16;1.45;;;0.90;;
57697;SDS011;43531;52.152;6.366;2023-10-31T02:08:48;3.85;;;1.05;;
57697;SDS011;43531;52.152;6.366;2023-10-31T02:09:20;1.95;;;0.93;;
57697;SDS011;43531;52.152;6.366;2023-10-31T02:09:55;3.33;;;0.98;;
57697;SDS011;43531;52.152;6.366;2023-10-31T02:10:28;3.28;;;0.93;;
57697;SDS011;43531;52.152;6.366;2023-10-31T02:10:59;4.50;;;0.85;;
57697;SDS011;43531;52.152;6.366;2023-10-31T02:11:31;4.13;;;1.20;;
57697;SDS011;43531;52.152;6.366;2023-10-31T02:12:03;2.63;;;1.13;;
57697;SDS011;43531;52.152;6.366;2023-10-31T02:12:36;2.05;;;1.10;;
57697;SDS011;43531;52.152;6.366;2023-10-31T02:13:17;2.80;;;0.82;;
57697;SDS011;43531;52.152;6.366;2023-10-31T02:13:49;2.30;;;0.73;;
57697;SDS011;43531;52.152;6.366;2023-10-31T02:14:24;2.55;;;0.98;;
57697;SDS011;43531;52.152;6.366;2023-10-31T02:14:56;1.15;;;0.95;;
57697;SDS011;43531;52.152;6.366;2023-10-31T02:15:27;1.90;;;1.50;;
57697;SDS011;43531;52.152;6.366;2023-10-31T02:15:59;4.32;;;1.13;;
57697;SDS011;43531;52.152;6.366;2023-10-31T02:16:31;1.92;;;1.00;;
57697;SDS011;43531;52.152;6.366;2023-10-31T02:17:02;7.60;;;1.65;;
57697;SDS011;43531;52.152;6.366;2023-10-31T02:17:34;2.65;;;1.25;;
57697;SDS011;43531;52.152;6.366;2023-10-31T02:18:06;4.82;;;1.63;;
57697;SDS011;43531;52.152;6.366;2023-10-31T02:18:39;5.25;;;1.52;;
57697;SDS011;43531;52.152;6.366;2023-10-31T02:19:10;1.58;;;1.30;;
57697;SDS011;43531;52.152;6.366;2023-10-31T02:19:44;2.63;;;1.45;;
57697;SDS011;43531;52.152;6.366;2023-10-31T02:20:15;3.20;;;1.52;;
57697;SDS011;43531;52.152;6.366;2023-10-31T02:20:47;5.97;;;1.75;;
57697;SDS011;43531;52.152;6.366;2023-10-31T02:21:20;6.30;;;1.88;;
57697;SDS011;43531;52.152;6.366;2023-10-31T02:21:52;3.92;;;2.00;;
57697;SDS011;43531;52.152;6.366;2023-10-31T02:22:23;5.22;;;2.50;;
57697;SDS011;43531;52.152;6.366;2023-10-31T02:22:55;2.90;;;1.98;;
57697;SDS011;43531;52.152;6.366;2023-10-31T02:23:27;6.15;;;2.85;;
57697;SDS011;43531;52.152;6.366;2023-10-31T02:24:00;5.45;;;2.97;;
57697;SDS011;43531;52.152;6.366;2023-10-31T02:24:32;8.63;;;3.90;;
57697;SDS011;43531;52.152;6.366;2023-10-31T02:25:15;4.43;;;2.65;;
57697;SDS011;43531;52.152;6.366;2023-10-31T02:25:47;8.05;;;2.85;;
57697;SDS011;43531;52.152;6.366;2023-10-31T02:26:18;6.72;;;3.00;;
57697;SDS011;43531;52.152;6.366;2023-10-31T02:26:50;6.72;;;3.47;;
57697;SDS011;43531;52.152;6.366;2023-10-31T02:27:23;6.55;;;3.97;;
57697;SDS011;43531;52.152;6.366;2023-10-31T02:27:54;6.32;;;3.65;;
57697;SDS011;43531;52.152;6.366;2023-10-31T02:28:26;6.90;;;4.38;;
57697;SDS011;43531;52.152;6.366;2023-10-31T02:28:59;7.05;;;4.03;;
57697;SDS011;43531;52.152;6.366;2023-10-31T02:29:31;5.18;;;3.90;;
57697;SDS011;43531;52.152;6.366;2023-10-31T02:30:03;8.40;;;3.95;;
57697;SDS011;43531;52.152;6.366;2023-10-31T02:30:35;4.07;;;3.30;;
57697;SDS011;43531;52.152;6.366;2023-10-31T02:31:07;9.73;;;4.85;;
57697;SDS011;43531;52.152;6.366;2023-10-31T02:31:38;5.88;;;4.43;;
57697;SDS011;43531;52.152;6.366;2023-10-31T02:32:11;10.82;;;6.15;;
57697;SDS011;43531;52.152;6.366;2023-10-31T02:32:43;7.10;;;3.92;;
57697;SDS011;43531;52.152;6.366;2023-10-31T02:33:15;13.40;;;5.45;;
57697;SDS011;43531;52.152;6.366;2023-10-31T02:33:46;6.90;;;4.88;;
57697;SDS011;43531;52.152;6.366;2023-10-31T02:34:18;7.00;;;4.72;;
57697;SDS011;43531;52.152;6.366;2023-10-31T02:34:49;7.65;;;5.47;;
57697;SDS011;43531;52.152;6.366;2023-10-31T02:35:21;9.10;;;5.53;;
57697;SDS011;43531;52.152;6.366;2023-10-31T02:35:53;9.00;;;5.82;;
57697;SDS011;43531;52.152;6.366;2023-10-31T02:36:24;10.32;;;6.22;;
57697;SDS011;43531;52.152;6.366;2023-10-31T02:36:56;7.22;;;4.78;;
57697;SDS011;43531;52.152;6.366;2023-10-31T02:37:28;6.60;;;4.85;;
57697;SDS011;43531;52.152;6.366;2023-10-31T02:37:59;8.30;;;5.75;;
57697;SDS011;43531;52.152;6.366;2023-10-31T02:38:31;11.73;;;5.78;;
57697;SDS011;43531;52.152;6.366;2023-10-31T02:39:02;8.90;;;4.78;;
57697;SDS011;43531;52.152;6.366;2023-10-31T02:39:35;8.43;;;6.95;;
57697;SDS011;43531;52.152;6.366;2023-10-31T02:40:07;12.30;;;5.72;;
57697;SDS011;43531;52.152;6.366;2023-10-31T02:40:39;10.40;;;5.53;;
57697;SDS011;43531;52.152;6.366;2023-10-31T02:41:11;13.02;;;6.95;;
57697;SDS011;43531;52.152;6.366;2023-10-31T02:41:43;11.77;;;7.03;;
57697;SDS011;43531;52.152;6.366;2023-10-31T02:42:15;10.25;;;5.88;;
57697;SDS011;43531;52.152;6.366;2023-10-31T02:42:46;7.97;;;6.05;;
57697;SDS011;43531;52.152;6.366;2023-10-31T02:43:18;10.00;;;5.95;;
57697;SDS011;43531;52.152;6.366;2023-10-31T02:43:50;9.32;;;6.50;;
57697;SDS011;43531;52.152;6.366;2023-10-31T02:44:22;15.32;;;7.13;;
57697;SDS011;43531;52.152;6.366;2023-10-31T02:44:56;8.52;;;6.22;;
57697;SDS011;43531;52.152;6.366;2023-10-31T02:45:28;7.68;;;5.70;;
57697;SDS011;43531;52.152;6.366;2023-10-31T02:45:59;10.40;;;6.53;;
57697;SDS011;43531;52.152;6.366;2023-10-31T02:46:31;7.72;;;6.50;;
57697;SDS011;43531;52.152;6.366;2023-10-31T02:47:03;11.80;;;7.03;;
57697;SDS011;43531;52.152;6.366;2023-10-31T02:47:35;8.57;;;6.15;;
57697;SDS011;43531;52.152;6.366;2023-10-31T02:48:07;13.13;;;6.97;;
57697;SDS011;43531;52.152;6.366;2023-10-31T02:48:38;10.48;;;7.32;;
57697;SDS011;43531;52.152;6.366;2023-10-31T02:49:11;10.73;;;5.68;;
57697;SDS011;43531;52.152;6.366;2023-10-31T02:49:42;13.55;;;6.72;;
57697;SDS011;43531;52.152;6.366;2023-10-31T02:50:14;11.73;;;6.63;;
57697;SDS011;43531;52.152;6.366;2023-10-31T02:50:46;14.60;;;7.55;;
57697;SDS011;43531;52.152;6.366;2023-10-31T02:51:17;6.88;;;5.75;;
57697;SDS011;43531;52.152;6.366;2023-10-31T02:51:49;9.75;;;7.25;;
57697;SDS011;43531;52.152;6.366;2023-10-31T02:52:21;9.13;;;7.07;;
57697;SDS011;43531;52.152;6.366;2023-10-31T02:52:52;11.30;;;6.28;;
57697;SDS011;43531;52.152;6.366;2023-10-31T02:53:24;12.23;;;7.22;;
57697;SDS011;43531;52.152;6.366;2023-10-31T02:53:55;9.27;;;6.75;;
57697;SDS011;43531;52.152;6.366;2023-10-31T02:54:27;15.98;;;6.22;;
57697;SDS011;43531;52.152;6.366;2023-10-31T02:54:59;9.80;;;6.93;;
57697;SDS011;43531;52.152;6.366;2023-10-31T02:55:31;7.82;;;5.70;;
57697;SDS011;43531;52.152;6.366;2023-10-31T02:56:02;8.63;;;6.88;;
57697;SDS011;43531;52.152;6.366;2023-10-31T02:56:36;9.23;;;6.80;;
57697;SDS011;43531;52.152;6.366;2023-10-31T02:57:08;7.25;;;5.60;;
57697;SDS011;43531;52.152;6.366;2023-10-31T02:57:43;14.35;;;6.68;;
57697;SDS011;43531;52.152;6.366;2023-10-31T02:58:15;12.63;;;6.32;;
57697;SDS011;43531;52.152;6.366;2023-10-31T02:58:48;10.85;;;6.20;;
57697;SDS011;43531;52.152;6.366;2023-10-31T02:59:20;10.05;;;6.47;;
57697;SDS011;43531;52.152;6.366;2023-10-31T02:59:51;13.70;;;5.97;;
57697;SDS011;43531;52.152;6.366;2023-10-31T03:00:23;11.32;;;6.82;;
57697;SDS011;43531;52.152;6.366;2023-10-31T03:00:55;9.88;;;6.85;;
57697;SDS011;43531;52.152;6.366;2023-10-31T03:01:29;9.90;;;6.78;;
57697;SDS011;43531;52.152;6.366;2023-10-31T03:02:01;10.02;;;6.47;;
57697;SDS011;43531;52.152;6.366;2023-10-31T03:02:33;8.48;;;6.35;;
57697;SDS011;43531;52.152;6.366;2023-10-31T03:03:05;9.05;;;6.28;;
57697;SDS011;43531;52.152;6.366;2023-10-31T03:03:37;12.98;;;6.60;;
57697;SDS011;43531;52.152;6.366;2023-10-31T03:04:08;9.30;;;6.18;;
57697;SDS011;43531;52.152;6.366;2023-10-31T03:04:40;8.80;;;6.18;;
57697;SDS011;43531;52.152;6.366;2023-10-31T03:05:12;11.60;;;6.28;;
57697;SDS011;43531;52.152;6.366;2023-10-31T03:05:43;9.85;;;5.95;;
57697;SDS011;43531;52.152;6.366;2023-10-31T03:06:15;9.88;;;5.57;;
57697;SDS011;43531;52.152;6.366;2023-10-31T03:06:48;9.43;;;6.32;;
57697;SDS011;43531;52.152;6.366;2023-10-31T03:07:20;11.82;;;7.75;;
57697;SDS011;43531;52.152;6.366;2023-10-31T03:07:53;11.18;;;6.72;;
57697;SDS011;43531;52.152;6.366;2023-10-31T03:08:24;11.95;;;6.80;;
57697;SDS011;43531;52.152;6.366;2023-10-31T03:08:56;9.07;;;6.07;;
57697;SDS011;43531;52.152;6.366;2023-10-31T03:09:28;12.77;;;6.40;;
57697;SDS011;43531;52.152;6.366;2023-10-31T03:09:59;11.32;;;6.10;;
57697;SDS011;43531;52.152;6.366;2023-10-31T03:10:31;13.50;;;6.05;;
57697;SDS011;43531;52.152;6.366;2023-10-31T03:11:03;11.43;;;7.38;;
57697;SDS011;43531;52.152;6.366;2023-10-31T03:11:34;11.00;;;7.55;;
57697;SDS011;43531;52.152;6.366;2023-10-31T03:12:06;12.68;;;6.60;;
57697;SDS011;43531;52.152;6.366;2023-10-31T03:12:38;9.40;;;6.63;;
57697;SDS011;43531;52.152;6.366;2023-10-31T03:13:09;9.02;;;6.22;;
57697;SDS011;43531;52.152;6.366;2023-10-31T03:13:41;9.38;;;6.25;;
57697;SDS011;43531;52.152;6.366;2023-10-31T03:14:12;9.35;;;5.93;;
57697;SDS011;43531;52.152;6.366;2023-10-31T03:14:44;7.45;;;5.35;;
57697;SDS011;43531;52.152;6.366;2023-10-31T03:15:16;11.52;;;6.18;;
57697;SDS011;43531;52.152;6.366;2023-10-31T03:15:50;9.43;;;6.55;;
57697;SDS011;43531;52.152;6.366;2023-10-31T03:16:22;7.30;;;6.20;;
57697;SDS011;43531;52.152;6.366;2023-10-31T03:16:54;11.45;;;5.88;;
57697;SDS011;43531;52.152;6.366;2023-10-31T03:17:26;10.82;;;6.57;;
57697;SDS011;43531;52.152;6.366;2023-10-31T03:17:59;12.88;;;6.45;;
57697;SDS011;43531;52.152;6.366;2023-10-31T03:18:31;10.48;;;6.65;;
57697;SDS011;43531;52.152;6.366;2023-10-31T03:19:02;12.75;;;6.90;;
57697;SDS011;43531;52.152;6.366;2023-10-31T03:19:34;9.60;;;6.43;;
57697;SDS011;43531;52.152;6.366;2023-10-31T03:20:06;12.15;;;6.03;;
57697;SDS011;43531;52.152;6.366;2023-10-31T03:20:38;10.25;;;6.60;;
57697;SDS011;43531;52.152;6.366;2023-10-31T03:21:09;10.65;;;6.20;;
57697;SDS011;43531;52.152;6.366;2023-10-31T03:21:41;13.77;;;8.40;;
57697;SDS011;43531;52.152;6.366;2023-10-31T03:22:12;10.02;;;6.82;;
57697;SDS011;43531;52.152;6.366;2023-10-31T03:22:45;7.82;;;6.20;;
57697;SDS011;43531;52.152;6.366;2023-10-31T03:23:16;9.15;;;5.93;;
57697;SDS011;43531;52.152;6.366;2023-10-31T03:23:52;7.57;;;6.13;;
57697;SDS011;43531;52.152;6.366;2023-10-31T03:24:27;6.60;;;5.20;;
57697;SDS011;43531;52.152;6.366;2023-10-31T03:24:58;11.43;;;6.47;;
57697;SDS011;43531;52.152;6.366;2023-10-31T03:25:30;11.88;;;6.05;;
57697;SDS011;43531;52.152;6.366;2023-10-31T03:26:02;8.05;;;5.88;;
57697;SDS011;43531;52.152;6.366;2023-10-31T03:26:34;10.07;;;6.43;;
57697;SDS011;43531;52.152;6.366;2023-10-31T03:27:06;12.23;;;6.57;;
57697;SDS011;43531;52.152;6.366;2023-10-31T03:27:37;8.02;;;5.07;;
57697;SDS011;43531;52.152;6.366;2023-10-31T03:28:19;7.55;;;4.97;;
57697;SDS011;43531;52.152;6.366;2023-10-31T03:28:51;10.02;;;5.20;;
57697;SDS011;43531;52.152;6.366;2023-10-31T03:29:28;8.65;;;5.30;;
57697;SDS011;43531;52.152;6.366;2023-10-31T03:30:00;6.53;;;4.90;;
57697;SDS011;43531;52.152;6.366;2023-10-31T03:30:31;8.38;;;5.80;;
57697;SDS011;43531;52.152;6.366;2023-10-31T03:31:03;6.25;;;4.75;;
57697;SDS011;43531;52.152;6.366;2023-10-31T03:31:35;4.70;;;3.78;;
57697;SDS011;43531;52.152;6.366;2023-10-31T03:32:06;4.47;;;4.05;;
57697;SDS011;43531;52.152;6.366;2023-10-31T03:32:38;6.72;;;3.40;;
57697;SDS011;43531;52.152;6.366;2023-10-31T03:33:10;3.67;;;3.30;;
57697;SDS011;43531;52.152;6.366;2023-10-31T03:33:42;4.22;;;2.80;;
57697;SDS011;43531;52.152;6.366;2023-10-31T03:34:13;7.13;;;3.85;;
57697;SDS011;43531;52.152;6.366;2023-10-31T03:34:45;4.78;;;3.25;;
57697;SDS011;43531;52.152;6.366;2023-10-31T03:35:17;3.25;;;2.28;;
57697;SDS011;43531;52.152;6.366;2023-10-31T03:35:49;7.00;;;2.78;;
57697;SDS011;43531;52.152;6.366;2023-10-31T03:36:20;3.35;;;2.95;;
57697;SDS011;43531;52.152;6.366;2023-10-31T03:36:52;2.95;;;2.40;;
57697;SDS011;43531;52.152;6.366;2023-10-31T03:37:24;5.22;;;3.20;;
57697;SDS011;43531;52.152;6.366;2023-10-31T03:37:56;2.70;;;2.22;;
57697;SDS011;43531;52.152;6.366;2023-10-31T03:38:27;3.15;;;2.80;;